sensor_id;sensor_type;location;lat;lon;timestamp;P1;durP1;ratioP1;P2;durP2;ratioP2
8281;SDS011;25606;42.686;23.136;2022-10-10T00:01:56;18.53;;;16.73;;
8281;SDS011;25606;42.686;23.136;2022-10-10T00:04:23;19.27;;;17.23;;
8281;SDS011;25606;42.686;23.136;2022-10-10T00:06:50;18.90;;;17.00;;
8281;SDS011;25606;42.686;23.136;2022-10-10T00:09:19;18.73;;;16.93;;
8281;SDS011;25606;42.686;23.136;2022-10-10T00:11:46;18.37;;;16.57;;
8281;SDS011;25606;42.686;23.136;2022-10-10T00:14:14;20.73;;;17.07;;
8281;SDS011;25606;42.686;23.136;2022-10-10T00:16:41;18.37;;;16.47;;
8281;SDS011;25606;42.686;23.136;2022-10-10T00:19:08;17.60;;;15.90;;
8281;SDS011;25606;42.686;23.136;2022-10-10T00:21:36;18.10;;;16.30;;
8281;SDS011;25606;42.686;23.136;2022-10-10T00:24:03;17.57;;;15.77;;
8281;SDS011;25606;42.686;23.136;2022-10-10T00:26:32;18.60;;;16.50;;
8281;SDS011;25606;42.686;23.136;2022-10-10T00:29:00;18.47;;;16.57;;
8281;SDS011;25606;42.686;23.136;2022-10-10T00:31:27;20.10;;;17.40;;
8281;SDS011;25606;42.686;23.136;2022-10-10T00:33:54;20.10;;;18.10;;
8281;SDS011;25606;42.686;23.136;2022-10-10T00:36:21;22.03;;;18.80;;
8281;SDS011;25606;42.686;23.136;2022-10-10T00:38:49;19.50;;;17.57;;
8281;SDS011;25606;42.686;23.136;2022-10-10T00:41:16;19.27;;;17.27;;
8281;SDS011;25606;42.686;23.136;2022-10-10T00:46:27;20.80;;;18.30;;
8281;SDS011;25606;42.686;23.136;2022-10-10T00:48:54;22.77;;;20.37;;
8281;SDS011;25606;42.686;23.136;2022-10-10T00:51:21;21.73;;;19.50;;
8281;SDS011;25606;42.686;23.136;2022-10-10T00:53:49;22.13;;;19.93;;
8281;SDS011;25606;42.686;23.136;2022-10-10T00:56:18;21.07;;;18.83;;
8281;SDS011;25606;42.686;23.136;2022-10-10T00:58:46;21.17;;;19.00;;
8281;SDS011;25606;42.686;23.136;2022-10-10T01:01:14;21.30;;;19.03;;
8281;SDS011;25606;42.686;23.136;2022-10-10T01:03:43;19.07;;;17.17;;
8281;SDS011;25606;42.686;23.136;2022-10-10T01:06:10;20.27;;;18.30;;
8281;SDS011;25606;42.686;23.136;2022-10-10T01:08:39;20.00;;;18.03;;
8281;SDS011;25606;42.686;23.136;2022-10-10T01:11:09;20.00;;;18.00;;
8281;SDS011;25606;42.686;23.136;2022-10-10T01:13:44;20.10;;;18.00;;
8281;SDS011;25606;42.686;23.136;2022-10-10T01:16:14;20.40;;;18.30;;
8281;SDS011;25606;42.686;23.136;2022-10-10T01:18:46;22.63;;;18.60;;
8281;SDS011;25606;42.686;23.136;2022-10-10T01:21:18;21.93;;;19.03;;
8281;SDS011;25606;42.686;23.136;2022-10-10T01:23:54;22.33;;;20.10;;
8281;SDS011;25606;42.686;23.136;2022-10-10T01:26:51;22.03;;;17.83;;
8281;SDS011;25606;42.686;23.136;2022-10-10T01:29:27;20.97;;;18.83;;
8281;SDS011;25606;42.686;23.136;2022-10-10T01:31:55;21.67;;;19.00;;
8281;SDS011;25606;42.686;23.136;2022-10-10T01:34:26;20.20;;;18.20;;
8281;SDS011;25606;42.686;23.136;2022-10-10T01:36:57;20.80;;;18.60;;
8281;SDS011;25606;42.686;23.136;2022-10-10T01:39:26;22.27;;;20.00;;
8281;SDS011;25606;42.686;23.136;2022-10-10T01:41:57;21.70;;;19.50;;
8281;SDS011;25606;42.686;23.136;2022-10-10T01:44:27;22.73;;;20.27;;
8281;SDS011;25606;42.686;23.136;2022-10-10T01:46:54;26.20;;;23.07;;
8281;SDS011;25606;42.686;23.136;2022-10-10T01:49:22;24.47;;;21.90;;
8281;SDS011;25606;42.686;23.136;2022-10-10T01:51:53;26.13;;;23.33;;
8281;SDS011;25606;42.686;23.136;2022-10-10T01:54:28;28.47;;;25.37;;
8281;SDS011;25606;42.686;23.136;2022-10-10T01:57:03;29.23;;;26.13;;
8281;SDS011;25606;42.686;23.136;2022-10-10T01:59:37;33.00;;;28.77;;
8281;SDS011;25606;42.686;23.136;2022-10-10T02:02:07;31.00;;;27.70;;
8281;SDS011;25606;42.686;23.136;2022-10-10T02:04:37;32.27;;;28.70;;
8281;SDS011;25606;42.686;23.136;2022-10-10T02:07:08;34.00;;;30.33;;
8281;SDS011;25606;42.686;23.136;2022-10-10T02:09:37;34.33;;;30.63;;
8281;SDS011;25606;42.686;23.136;2022-10-10T02:12:05;34.10;;;29.63;;
8281;SDS011;25606;42.686;23.136;2022-10-10T02:14:34;33.77;;;29.50;;
8281;SDS011;25606;42.686;23.136;2022-10-10T02:17:04;38.00;;;31.77;;
8281;SDS011;25606;42.686;23.136;2022-10-10T02:19:34;41.57;;;34.43;;
8281;SDS011;25606;42.686;23.136;2022-10-10T02:22:03;40.40;;;32.30;;
8281;SDS011;25606;42.686;23.136;2022-10-10T02:24:30;36.90;;;32.70;;
8281;SDS011;25606;42.686;23.136;2022-10-10T02:26:58;34.50;;;30.20;;
8281;SDS011;25606;42.686;23.136;2022-10-10T02:29:30;33.73;;;30.13;;
8281;SDS011;25606;42.686;23.136;2022-10-10T02:32:01;36.07;;;29.13;;
8281;SDS011;25606;42.686;23.136;2022-10-10T02:34:31;33.07;;;29.60;;
8281;SDS011;25606;42.686;23.136;2022-10-10T02:37:00;32.03;;;28.60;;
8281;SDS011;25606;42.686;23.136;2022-10-10T02:39:29;31.33;;;28.00;;
8281;SDS011;25606;42.686;23.136;2022-10-10T02:41:57;30.10;;;26.83;;
8281;SDS011;25606;42.686;23.136;2022-10-10T02:44:25;30.47;;;27.27;;
8281;SDS011;25606;42.686;23.136;2022-10-10T02:46:53;31.73;;;27.73;;
8281;SDS011;25606;42.686;23.136;2022-10-10T02:49:23;31.40;;;27.97;;
8281;SDS011;25606;42.686;23.136;2022-10-10T02:51:53;31.90;;;28.50;;
8281;SDS011;25606;42.686;23.136;2022-10-10T02:54:20;33.67;;;29.97;;
8281;SDS011;25606;42.686;23.136;2022-10-10T02:56:48;35.60;;;30.80;;
8281;SDS011;25606;42.686;23.136;2022-10-10T02:59:15;40.23;;;33.13;;
8281;SDS011;25606;42.686;23.136;2022-10-10T03:01:42;33.40;;;29.80;;
8281;SDS011;25606;42.686;23.136;2022-10-10T03:04:10;33.30;;;28.63;;
8281;SDS011;25606;42.686;23.136;2022-10-10T03:06:37;36.73;;;28.90;;
8281;SDS011;25606;42.686;23.136;2022-10-10T03:09:06;33.47;;;29.87;;
8281;SDS011;25606;42.686;23.136;2022-10-10T03:11:33;35.30;;;30.57;;
8281;SDS011;25606;42.686;23.136;2022-10-10T03:14:01;36.30;;;31.83;;
8281;SDS011;25606;42.686;23.136;2022-10-10T03:16:28;42.07;;;33.20;;
8281;SDS011;25606;42.686;23.136;2022-10-10T03:18:55;38.23;;;33.77;;
8281;SDS011;25606;42.686;23.136;2022-10-10T03:21:23;36.07;;;31.03;;
8281;SDS011;25606;42.686;23.136;2022-10-10T03:23:50;35.40;;;31.40;;
8281;SDS011;25606;42.686;23.136;2022-10-10T03:26:19;35.57;;;30.77;;
8281;SDS011;25606;42.686;23.136;2022-10-10T03:28:46;37.43;;;29.97;;
8281;SDS011;25606;42.686;23.136;2022-10-10T03:31:13;34.00;;;29.97;;
8281;SDS011;25606;42.686;23.136;2022-10-10T03:33:41;34.43;;;28.90;;
8281;SDS011;25606;42.686;23.136;2022-10-10T03:36:08;34.20;;;29.67;;
8281;SDS011;25606;42.686;23.136;2022-10-10T03:38:35;30.23;;;26.27;;
8281;SDS011;25606;42.686;23.136;2022-10-10T03:41:03;29.40;;;26.30;;
8281;SDS011;25606;42.686;23.136;2022-10-10T03:43:31;29.93;;;26.77;;
8281;SDS011;25606;42.686;23.136;2022-10-10T03:45:58;31.67;;;26.93;;
8281;SDS011;25606;42.686;23.136;2022-10-10T03:48:26;31.07;;;27.03;;
8281;SDS011;25606;42.686;23.136;2022-10-10T03:50:53;33.03;;;27.63;;
8281;SDS011;25606;42.686;23.136;2022-10-10T03:53:20;29.73;;;26.13;;
8281;SDS011;25606;42.686;23.136;2022-10-10T03:55:48;26.47;;;23.73;;
8281;SDS011;25606;42.686;23.136;2022-10-10T03:58:15;33.37;;;26.93;;
8281;SDS011;25606;42.686;23.136;2022-10-10T04:00:44;31.13;;;27.77;;
8281;SDS011;25606;42.686;23.136;2022-10-10T04:03:11;34.50;;;29.03;;
8281;SDS011;25606;42.686;23.136;2022-10-10T04:05:38;31.83;;;28.50;;
8281;SDS011;25606;42.686;23.136;2022-10-10T04:08:05;30.93;;;27.57;;
8281;SDS011;25606;42.686;23.136;2022-10-10T04:10:33;29.63;;;26.43;;
8281;SDS011;25606;42.686;23.136;2022-10-10T04:13:00;29.37;;;25.87;;
8281;SDS011;25606;42.686;23.136;2022-10-10T04:15:27;30.13;;;26.67;;
8281;SDS011;25606;42.686;23.136;2022-10-10T04:17:57;31.97;;;28.47;;
8281;SDS011;25606;42.686;23.136;2022-10-10T04:20:25;38.67;;;30.10;;
8281;SDS011;25606;42.686;23.136;2022-10-10T04:22:52;35.57;;;31.63;;
8281;SDS011;25606;42.686;23.136;2022-10-10T04:25:19;40.50;;;32.90;;
8281;SDS011;25606;42.686;23.136;2022-10-10T04:27:47;41.83;;;34.30;;
8281;SDS011;25606;42.686;23.136;2022-10-10T04:30:14;42.30;;;35.50;;
8281;SDS011;25606;42.686;23.136;2022-10-10T04:32:41;40.60;;;35.43;;
8281;SDS011;25606;42.686;23.136;2022-10-10T04:35:10;42.07;;;35.20;;
8281;SDS011;25606;42.686;23.136;2022-10-10T04:37:37;40.83;;;34.60;;
8281;SDS011;25606;42.686;23.136;2022-10-10T04:40:05;40.03;;;34.20;;
8281;SDS011;25606;42.686;23.136;2022-10-10T04:42:32;41.73;;;33.80;;
8281;SDS011;25606;42.686;23.136;2022-10-10T04:45:00;45.23;;;36.23;;
8281;SDS011;25606;42.686;23.136;2022-10-10T04:47:27;39.77;;;33.03;;
8281;SDS011;25606;42.686;23.136;2022-10-10T04:49:54;36.10;;;31.03;;
8281;SDS011;25606;42.686;23.136;2022-10-10T04:52:23;32.70;;;28.63;;
8281;SDS011;25606;42.686;23.136;2022-10-10T04:54:50;32.07;;;28.17;;
8281;SDS011;25606;42.686;23.136;2022-10-10T04:57:17;35.17;;;30.63;;
8281;SDS011;25606;42.686;23.136;2022-10-10T04:59:45;36.13;;;30.27;;
8281;SDS011;25606;42.686;23.136;2022-10-10T05:02:12;38.17;;;32.43;;
8281;SDS011;25606;42.686;23.136;2022-10-10T05:04:39;42.20;;;33.10;;
8281;SDS011;25606;42.686;23.136;2022-10-10T05:07:07;44.67;;;36.27;;
8281;SDS011;25606;42.686;23.136;2022-10-10T05:09:35;41.80;;;34.83;;
8281;SDS011;25606;42.686;23.136;2022-10-10T05:12:03;39.73;;;33.70;;
8281;SDS011;25606;42.686;23.136;2022-10-10T05:14:30;39.27;;;33.80;;
8281;SDS011;25606;42.686;23.136;2022-10-10T05:16:57;36.70;;;32.80;;
8281;SDS011;25606;42.686;23.136;2022-10-10T05:19:24;33.97;;;30.37;;
8281;SDS011;25606;42.686;23.136;2022-10-10T05:21:52;26.77;;;24.20;;
8281;SDS011;25606;42.686;23.136;2022-10-10T05:24:19;25.27;;;22.70;;
8281;SDS011;25606;42.686;23.136;2022-10-10T05:26:47;22.47;;;20.27;;
8281;SDS011;25606;42.686;23.136;2022-10-10T05:29:15;19.37;;;17.37;;
8281;SDS011;25606;42.686;23.136;2022-10-10T05:31:42;18.40;;;16.80;;
8281;SDS011;25606;42.686;23.136;2022-10-10T05:34:10;17.33;;;15.70;;
8281;SDS011;25606;42.686;23.136;2022-10-10T05:36:38;17.53;;;15.77;;
8281;SDS011;25606;42.686;23.136;2022-10-10T05:39:05;18.53;;;16.70;;
8281;SDS011;25606;42.686;23.136;2022-10-10T05:41:33;17.83;;;16.23;;
8281;SDS011;25606;42.686;23.136;2022-10-10T05:44:01;17.57;;;15.80;;
8281;SDS011;25606;42.686;23.136;2022-10-10T05:46:28;19.07;;;17.07;;
8281;SDS011;25606;42.686;23.136;2022-10-10T05:48:56;18.73;;;16.83;;
8281;SDS011;25606;42.686;23.136;2022-10-10T05:51:23;19.70;;;17.40;;
8281;SDS011;25606;42.686;23.136;2022-10-10T05:53:50;19.37;;;17.47;;
8281;SDS011;25606;42.686;23.136;2022-10-10T05:56:17;20.83;;;18.73;;
8281;SDS011;25606;42.686;23.136;2022-10-10T05:58:45;21.47;;;19.27;;
8281;SDS011;25606;42.686;23.136;2022-10-10T06:01:14;21.87;;;19.50;;
8281;SDS011;25606;42.686;23.136;2022-10-10T06:03:42;21.13;;;18.93;;
8281;SDS011;25606;42.686;23.136;2022-10-10T06:06:09;20.37;;;18.20;;
8281;SDS011;25606;42.686;23.136;2022-10-10T06:08:36;20.80;;;18.63;;
8281;SDS011;25606;42.686;23.136;2022-10-10T06:11:04;22.67;;;19.73;;
8281;SDS011;25606;42.686;23.136;2022-10-10T06:13:32;23.10;;;19.50;;
8281;SDS011;25606;42.686;23.136;2022-10-10T06:15:59;22.40;;;20.27;;
8281;SDS011;25606;42.686;23.136;2022-10-10T06:18:28;20.40;;;18.40;;
8281;SDS011;25606;42.686;23.136;2022-10-10T06:20:59;21.87;;;19.67;;
8281;SDS011;25606;42.686;23.136;2022-10-10T06:23:26;21.73;;;19.63;;
8281;SDS011;25606;42.686;23.136;2022-10-10T06:25:54;23.67;;;20.00;;
8281;SDS011;25606;42.686;23.136;2022-10-10T06:28:21;21.67;;;19.47;;
8281;SDS011;25606;42.686;23.136;2022-10-10T06:30:48;20.47;;;18.63;;
8281;SDS011;25606;42.686;23.136;2022-10-10T06:33:16;19.57;;;17.67;;
8281;SDS011;25606;42.686;23.136;2022-10-10T06:35:45;21.03;;;19.03;;
8281;SDS011;25606;42.686;23.136;2022-10-10T06:38:13;71.03;;;54.93;;
8281;SDS011;25606;42.686;23.136;2022-10-10T06:40:41;22.03;;;19.77;;
8281;SDS011;25606;42.686;23.136;2022-10-10T06:43:08;20.17;;;18.17;;
8281;SDS011;25606;42.686;23.136;2022-10-10T06:45:36;20.30;;;18.37;;
8281;SDS011;25606;42.686;23.136;2022-10-10T06:48:04;20.60;;;18.50;;
8281;SDS011;25606;42.686;23.136;2022-10-10T06:50:31;20.80;;;18.60;;
8281;SDS011;25606;42.686;23.136;2022-10-10T06:53:00;73.60;;;56.03;;
8281;SDS011;25606;42.686;23.136;2022-10-10T06:55:27;20.53;;;18.57;;
8281;SDS011;25606;42.686;23.136;2022-10-10T06:57:55;19.93;;;17.77;;
8281;SDS011;25606;42.686;23.136;2022-10-10T07:00:22;19.70;;;17.60;;
8281;SDS011;25606;42.686;23.136;2022-10-10T07:02:49;22.40;;;19.17;;
8281;SDS011;25606;42.686;23.136;2022-10-10T07:05:17;20.37;;;18.37;;
8281;SDS011;25606;42.686;23.136;2022-10-10T07:07:44;21.97;;;19.90;;
8281;SDS011;25606;42.686;23.136;2022-10-10T07:10:13;25.33;;;20.90;;
8281;SDS011;25606;42.686;23.136;2022-10-10T07:12:41;21.83;;;19.63;;
8281;SDS011;25606;42.686;23.136;2022-10-10T07:15:08;23.30;;;19.73;;
8281;SDS011;25606;42.686;23.136;2022-10-10T07:17:35;22.73;;;20.50;;
8281;SDS011;25606;42.686;23.136;2022-10-10T07:20:03;22.40;;;19.77;;
8281;SDS011;25606;42.686;23.136;2022-10-10T07:22:30;23.63;;;21.10;;
8281;SDS011;25606;42.686;23.136;2022-10-10T07:24:58;23.90;;;21.30;;
8281;SDS011;25606;42.686;23.136;2022-10-10T07:27:26;24.30;;;21.03;;
8281;SDS011;25606;42.686;23.136;2022-10-10T07:29:53;23.60;;;21.17;;
8281;SDS011;25606;42.686;23.136;2022-10-10T07:32:21;22.17;;;19.87;;
8281;SDS011;25606;42.686;23.136;2022-10-10T07:34:48;22.10;;;19.83;;
8281;SDS011;25606;42.686;23.136;2022-10-10T07:37:16;21.80;;;19.73;;
8281;SDS011;25606;42.686;23.136;2022-10-10T07:39:43;21.23;;;19.20;;
8281;SDS011;25606;42.686;23.136;2022-10-10T07:42:10;21.63;;;19.50;;
8281;SDS011;25606;42.686;23.136;2022-10-10T07:44:39;21.80;;;19.50;;
8281;SDS011;25606;42.686;23.136;2022-10-10T07:47:06;22.97;;;20.47;;
8281;SDS011;25606;42.686;23.136;2022-10-10T07:49:34;23.67;;;21.20;;
8281;SDS011;25606;42.686;23.136;2022-10-10T07:52:01;23.23;;;20.93;;
8281;SDS011;25606;42.686;23.136;2022-10-10T07:54:28;23.33;;;20.87;;
8281;SDS011;25606;42.686;23.136;2022-10-10T07:56:56;23.43;;;20.83;;
8281;SDS011;25606;42.686;23.136;2022-10-10T07:59:23;20.83;;;18.83;;
8281;SDS011;25606;42.686;23.136;2022-10-10T08:01:52;21.60;;;19.40;;
8281;SDS011;25606;42.686;23.136;2022-10-10T08:04:19;21.13;;;19.00;;
8281;SDS011;25606;42.686;23.136;2022-10-10T08:06:46;20.17;;;18.17;;
8281;SDS011;25606;42.686;23.136;2022-10-10T08:09:14;20.43;;;18.20;;
8281;SDS011;25606;42.686;23.136;2022-10-10T08:11:41;19.67;;;17.70;;
8281;SDS011;25606;42.686;23.136;2022-10-10T08:14:09;20.30;;;18.17;;
8281;SDS011;25606;42.686;23.136;2022-10-10T08:16:36;16.77;;;15.17;;
8281;SDS011;25606;42.686;23.136;2022-10-10T08:19:05;16.60;;;14.90;;
8281;SDS011;25606;42.686;23.136;2022-10-10T08:21:32;16.90;;;15.00;;
8281;SDS011;25606;42.686;23.136;2022-10-10T08:24:00;14.90;;;13.43;;
8281;SDS011;25606;42.686;23.136;2022-10-10T08:26:27;15.73;;;14.20;;
8281;SDS011;25606;42.686;23.136;2022-10-10T08:28:54;15.40;;;12.83;;
8281;SDS011;25606;42.686;23.136;2022-10-10T08:31:22;14.50;;;13.03;;
8281;SDS011;25606;42.686;23.136;2022-10-10T08:33:50;15.73;;;14.00;;
8281;SDS011;25606;42.686;23.136;2022-10-10T08:36:19;16.53;;;14.20;;
8281;SDS011;25606;42.686;23.136;2022-10-10T08:38:46;14.60;;;13.10;;
8281;SDS011;25606;42.686;23.136;2022-10-10T08:41:22;14.67;;;12.90;;
8281;SDS011;25606;42.686;23.136;2022-10-10T08:43:53;17.10;;;14.70;;
8281;SDS011;25606;42.686;23.136;2022-10-10T08:46:24;15.67;;;13.40;;
8281;SDS011;25606;42.686;23.136;2022-10-10T08:48:53;20.13;;;14.43;;
8281;SDS011;25606;42.686;23.136;2022-10-10T08:51:24;18.93;;;13.83;;
8281;SDS011;25606;42.686;23.136;2022-10-10T08:53:53;15.60;;;13.83;;
8281;SDS011;25606;42.686;23.136;2022-10-10T08:56:22;17.53;;;15.63;;
8281;SDS011;25606;42.686;23.136;2022-10-10T08:58:52;21.70;;;15.20;;
8281;SDS011;25606;42.686;23.136;2022-10-10T09:01:22;19.30;;;15.13;;
8281;SDS011;25606;42.686;23.136;2022-10-10T09:03:50;19.20;;;16.50;;
8281;SDS011;25606;42.686;23.136;2022-10-10T09:06:31;17.57;;;15.57;;
8281;SDS011;25606;42.686;23.136;2022-10-10T09:09:05;18.37;;;15.40;;
8281;SDS011;25606;42.686;23.136;2022-10-10T09:11:38;17.93;;;14.47;;
8281;SDS011;25606;42.686;23.136;2022-10-10T09:14:10;20.37;;;14.90;;
8281;SDS011;25606;42.686;23.136;2022-10-10T09:16:42;21.93;;;16.23;;
8281;SDS011;25606;42.686;23.136;2022-10-10T09:19:15;23.43;;;16.73;;
8281;SDS011;25606;42.686;23.136;2022-10-10T09:21:49;19.87;;;16.57;;
8281;SDS011;25606;42.686;23.136;2022-10-10T09:24:18;17.57;;;15.70;;
8281;SDS011;25606;42.686;23.136;2022-10-10T09:26:46;18.63;;;15.47;;
8281;SDS011;25606;42.686;23.136;2022-10-10T09:29:22;17.17;;;15.37;;
8281;SDS011;25606;42.686;23.136;2022-10-10T09:31:52;16.30;;;14.27;;
8281;SDS011;25606;42.686;23.136;2022-10-10T09:34:21;16.70;;;14.43;;
8281;SDS011;25606;42.686;23.136;2022-10-10T09:36:54;16.10;;;12.80;;
8281;SDS011;25606;42.686;23.136;2022-10-10T09:39:27;13.57;;;11.73;;
8281;SDS011;25606;42.686;23.136;2022-10-10T09:41:58;15.00;;;12.53;;
8281;SDS011;25606;42.686;23.136;2022-10-10T09:44:26;16.13;;;12.57;;
8281;SDS011;25606;42.686;23.136;2022-10-10T09:46:53;16.40;;;12.60;;
8281;SDS011;25606;42.686;23.136;2022-10-10T09:49:21;13.00;;;11.63;;
8281;SDS011;25606;42.686;23.136;2022-10-10T09:51:48;12.37;;;11.07;;
8281;SDS011;25606;42.686;23.136;2022-10-10T09:54:18;16.83;;;11.60;;
8281;SDS011;25606;42.686;23.136;2022-10-10T09:56:47;12.30;;;10.00;;
8281;SDS011;25606;42.686;23.136;2022-10-10T09:59:34;19.93;;;16.27;;
8281;SDS011;25606;42.686;23.136;2022-10-10T10:02:07;12.57;;;10.97;;
8281;SDS011;25606;42.686;23.136;2022-10-10T10:04:37;13.90;;;9.90;;
8281;SDS011;25606;42.686;23.136;2022-10-10T10:07:05;15.50;;;10.40;;
8281;SDS011;25606;42.686;23.136;2022-10-10T10:09:34;12.17;;;9.50;;
8281;SDS011;25606;42.686;23.136;2022-10-10T10:12:01;13.03;;;9.90;;
8281;SDS011;25606;42.686;23.136;2022-10-10T10:14:31;10.23;;;9.10;;
8281;SDS011;25606;42.686;23.136;2022-10-10T10:17:04;12.83;;;10.30;;
8281;SDS011;25606;42.686;23.136;2022-10-10T10:19:32;13.00;;;9.60;;
8281;SDS011;25606;42.686;23.136;2022-10-10T10:22:00;11.20;;;8.80;;
8281;SDS011;25606;42.686;23.136;2022-10-10T10:24:28;11.50;;;8.53;;
8281;SDS011;25606;42.686;23.136;2022-10-10T10:26:58;13.27;;;9.00;;
8281;SDS011;25606;42.686;23.136;2022-10-10T10:29:33;9.30;;;8.40;;
8281;SDS011;25606;42.686;23.136;2022-10-10T10:32:07;9.27;;;7.73;;
8281;SDS011;25606;42.686;23.136;2022-10-10T10:34:51;7.97;;;7.03;;
8281;SDS011;25606;42.686;23.136;2022-10-10T10:37:23;8.73;;;7.77;;
8281;SDS011;25606;42.686;23.136;2022-10-10T10:39:59;11.27;;;7.80;;
8281;SDS011;25606;42.686;23.136;2022-10-10T10:42:38;7.87;;;6.60;;
8281;SDS011;25606;42.686;23.136;2022-10-10T10:45:11;8.13;;;6.10;;
8281;SDS011;25606;42.686;23.136;2022-10-10T10:47:43;9.27;;;6.73;;
8281;SDS011;25606;42.686;23.136;2022-10-10T10:50:21;8.33;;;6.10;;
8281;SDS011;25606;42.686;23.136;2022-10-10T10:52:55;8.47;;;6.37;;
8281;SDS011;25606;42.686;23.136;2022-10-10T10:55:27;41.33;;;9.33;;
8281;SDS011;25606;42.686;23.136;2022-10-10T10:58:14;11.03;;;6.63;;
8281;SDS011;25606;42.686;23.136;2022-10-10T11:00:49;21.10;;;7.63;;
8281;SDS011;25606;42.686;23.136;2022-10-10T11:03:20;39.77;;;8.30;;
8281;SDS011;25606;42.686;23.136;2022-10-10T11:05:51;7.97;;;5.93;;
8281;SDS011;25606;42.686;23.136;2022-10-10T11:08:27;7.60;;;5.73;;
8281;SDS011;25606;42.686;23.136;2022-10-10T11:10:59;9.80;;;5.83;;
8281;SDS011;25606;42.686;23.136;2022-10-10T11:13:33;6.43;;;5.23;;
8281;SDS011;25606;42.686;23.136;2022-10-10T11:16:04;6.07;;;5.47;;
8281;SDS011;25606;42.686;23.136;2022-10-10T11:18:36;5.90;;;5.30;;
8281;SDS011;25606;42.686;23.136;2022-10-10T11:21:05;6.20;;;5.70;;
8281;SDS011;25606;42.686;23.136;2022-10-10T11:23:35;6.57;;;5.87;;
8281;SDS011;25606;42.686;23.136;2022-10-10T11:26:06;10.23;;;5.80;;
8281;SDS011;25606;42.686;23.136;2022-10-10T11:28:38;5.97;;;5.37;;
8281;SDS011;25606;42.686;23.136;2022-10-10T11:31:07;6.87;;;5.83;;
8281;SDS011;25606;42.686;23.136;2022-10-10T11:33:38;6.60;;;6.00;;
8281;SDS011;25606;42.686;23.136;2022-10-10T11:36:08;8.57;;;5.90;;
8281;SDS011;25606;42.686;23.136;2022-10-10T11:38:39;6.60;;;6.00;;
8281;SDS011;25606;42.686;23.136;2022-10-10T11:41:11;6.40;;;5.83;;
8281;SDS011;25606;42.686;23.136;2022-10-10T11:43:42;6.30;;;5.70;;
8281;SDS011;25606;42.686;23.136;2022-10-10T11:46:13;9.83;;;5.77;;
8281;SDS011;25606;42.686;23.136;2022-10-10T11:48:44;6.67;;;5.73;;
8281;SDS011;25606;42.686;23.136;2022-10-10T11:51:17;6.57;;;5.97;;
8281;SDS011;25606;42.686;23.136;2022-10-10T11:53:45;5.83;;;5.33;;
8281;SDS011;25606;42.686;23.136;2022-10-10T11:56:16;7.30;;;5.90;;
8281;SDS011;25606;42.686;23.136;2022-10-10T11:58:47;6.03;;;5.43;;
8281;SDS011;25606;42.686;23.136;2022-10-10T12:01:19;12.43;;;5.67;;
8281;SDS011;25606;42.686;23.136;2022-10-10T12:03:49;8.47;;;5.53;;
8281;SDS011;25606;42.686;23.136;2022-10-10T12:06:18;6.50;;;5.83;;
8281;SDS011;25606;42.686;23.136;2022-10-10T12:08:49;5.87;;;5.27;;
8281;SDS011;25606;42.686;23.136;2022-10-10T12:11:19;7.33;;;5.23;;
8281;SDS011;25606;42.686;23.136;2022-10-10T12:13:51;8.43;;;5.33;;
8281;SDS011;25606;42.686;23.136;2022-10-10T12:16:20;5.63;;;5.07;;
8281;SDS011;25606;42.686;23.136;2022-10-10T12:18:50;5.67;;;5.00;;
8281;SDS011;25606;42.686;23.136;2022-10-10T12:21:19;5.00;;;4.60;;
8281;SDS011;25606;42.686;23.136;2022-10-10T12:23:48;5.23;;;4.73;;
8281;SDS011;25606;42.686;23.136;2022-10-10T12:26:19;5.57;;;5.03;;
8281;SDS011;25606;42.686;23.136;2022-10-10T12:29:00;7.40;;;5.07;;
8281;SDS011;25606;42.686;23.136;2022-10-10T12:31:32;5.73;;;5.03;;
8281;SDS011;25606;42.686;23.136;2022-10-10T12:34:03;5.40;;;4.90;;
8281;SDS011;25606;42.686;23.136;2022-10-10T12:36:42;5.20;;;4.70;;
8281;SDS011;25606;42.686;23.136;2022-10-10T12:39:33;5.60;;;5.10;;
8281;SDS011;25606;42.686;23.136;2022-10-10T12:42:00;5.73;;;4.67;;
8281;SDS011;25606;42.686;23.136;2022-10-10T12:50:03;8.40;;;5.00;;
8281;SDS011;25606;42.686;23.136;2022-10-10T12:52:31;6.10;;;5.50;;
8281;SDS011;25606;42.686;23.136;2022-10-10T12:55:01;6.07;;;5.47;;
8281;SDS011;25606;42.686;23.136;2022-10-10T12:57:31;6.30;;;5.70;;
8281;SDS011;25606;42.686;23.136;2022-10-10T13:00:03;7.90;;;5.27;;
8281;SDS011;25606;42.686;23.136;2022-10-10T13:02:30;5.73;;;5.23;;
8281;SDS011;25606;42.686;23.136;2022-10-10T13:04:58;6.57;;;5.37;;
8281;SDS011;25606;42.686;23.136;2022-10-10T13:07:28;5.60;;;5.10;;
8281;SDS011;25606;42.686;23.136;2022-10-10T13:10:03;10.83;;;5.90;;
8281;SDS011;25606;42.686;23.136;2022-10-10T13:12:31;8.27;;;5.97;;
8281;SDS011;25606;42.686;23.136;2022-10-10T13:14:58;8.30;;;5.63;;
8281;SDS011;25606;42.686;23.136;2022-10-10T13:17:26;6.47;;;5.87;;
8281;SDS011;25606;42.686;23.136;2022-10-10T13:19:55;6.70;;;5.40;;
8281;SDS011;25606;42.686;23.136;2022-10-10T13:22:23;9.47;;;5.60;;
8281;SDS011;25606;42.686;23.136;2022-10-10T13:24:52;6.83;;;5.57;;
8281;SDS011;25606;42.686;23.136;2022-10-10T13:27:20;6.03;;;5.50;;
8281;SDS011;25606;42.686;23.136;2022-10-10T13:30:02;6.17;;;5.47;;
8281;SDS011;25606;42.686;23.136;2022-10-10T13:32:31;6.57;;;5.87;;
8281;SDS011;25606;42.686;23.136;2022-10-10T13:35:01;5.67;;;5.17;;
8281;SDS011;25606;42.686;23.136;2022-10-10T13:37:29;8.03;;;5.77;;
8281;SDS011;25606;42.686;23.136;2022-10-10T13:39:59;6.27;;;5.67;;
8281;SDS011;25606;42.686;23.136;2022-10-10T13:42:30;7.00;;;5.20;;
8281;SDS011;25606;42.686;23.136;2022-10-10T13:44:58;5.77;;;5.27;;
8281;SDS011;25606;42.686;23.136;2022-10-10T13:50:20;8.23;;;5.60;;
8281;SDS011;25606;42.686;23.136;2022-10-10T13:52:48;5.87;;;5.37;;
8281;SDS011;25606;42.686;23.136;2022-10-10T13:55:22;6.93;;;5.50;;
8281;SDS011;25606;42.686;23.136;2022-10-10T13:57:49;5.80;;;5.30;;
8281;SDS011;25606;42.686;23.136;2022-10-10T14:00:18;8.67;;;6.00;;
8281;SDS011;25606;42.686;23.136;2022-10-10T14:02:46;6.90;;;5.50;;
8281;SDS011;25606;42.686;23.136;2022-10-10T14:05:14;8.97;;;6.70;;
8281;SDS011;25606;42.686;23.136;2022-10-10T14:07:45;6.60;;;5.90;;
8281;SDS011;25606;42.686;23.136;2022-10-10T14:10:15;5.77;;;5.03;;
8281;SDS011;25606;42.686;23.136;2022-10-10T14:12:48;6.73;;;6.03;;
8281;SDS011;25606;42.686;23.136;2022-10-10T14:15:30;7.03;;;6.33;;
8281;SDS011;25606;42.686;23.136;2022-10-10T14:17:59;6.83;;;6.13;;
8281;SDS011;25606;42.686;23.136;2022-10-10T14:20:27;6.40;;;5.77;;
8281;SDS011;25606;42.686;23.136;2022-10-10T14:22:54;9.27;;;5.80;;
8281;SDS011;25606;42.686;23.136;2022-10-10T14:25:25;8.03;;;6.13;;
8281;SDS011;25606;42.686;23.136;2022-10-10T14:27:53;6.93;;;6.23;;
8281;SDS011;25606;42.686;23.136;2022-10-10T14:30:21;33.63;;;24.00;;
8281;SDS011;25606;42.686;23.136;2022-10-10T14:32:48;26.67;;;17.60;;
8281;SDS011;25606;42.686;23.136;2022-10-10T14:35:15;17.43;;;10.80;;
8281;SDS011;25606;42.686;23.136;2022-10-10T14:37:43;16.27;;;10.60;;
8281;SDS011;25606;42.686;23.136;2022-10-10T14:40:16;38.70;;;20.03;;
8281;SDS011;25606;42.686;23.136;2022-10-10T14:42:45;16.53;;;9.00;;
8281;SDS011;25606;42.686;23.136;2022-10-10T14:45:15;15.87;;;9.57;;
8281;SDS011;25606;42.686;23.136;2022-10-10T14:47:42;10.77;;;7.53;;
8281;SDS011;25606;42.686;23.136;2022-10-10T14:50:13;17.43;;;13.03;;
8281;SDS011;25606;42.686;23.136;2022-10-10T14:52:42;12.33;;;10.37;;